createdAt,value
2018-05-09T00:00:51.183Z,17.18
2018-05-09T00:01:55.450Z,17.12
2018-05-09T00:02:59.566Z,17.27
2018-05-09T00:04:03.724Z,17.45
2018-05-09T00:05:08.124Z,17.43
2018-05-09T00:06:12.225Z,17.41
2018-05-09T00:07:16.330Z,17.32
2018-05-09T00:08:20.460Z,17.30
2018-05-09T00:09:24.532Z,17.27
2018-05-09T00:10:28.589Z,17.30
2018-05-09T00:11:32.979Z,17.28
2018-05-09T00:12:37.198Z,17.41
2018-05-09T00:13:41.359Z,17.42
2018-05-09T00:14:45.422Z,17.36
2018-05-09T00:15:49.566Z,17.35
2018-05-09T00:16:53.700Z,17.34
2018-05-09T00:17:58.185Z,17.38
2018-05-09T00:19:02.385Z,17.53
2018-05-09T00:20:06.800Z,17.57
2018-05-09T00:21:11.530Z,17.47
2018-05-09T00:22:16.606Z,17.34
2018-05-09T00:23:20.692Z,17.27
2018-05-09T00:24:24.814Z,17.17
2018-05-09T00:25:28.904Z,17.09
2018-05-09T00:26:32.981Z,17.01
2018-05-09T00:27:37.138Z,16.98
2018-05-09T00:28:41.268Z,17.01
2018-05-09T00:29:45.852Z,16.98
2018-05-09T00:30:50.286Z,16.97
2018-05-09T00:31:54.664Z,16.99
2018-05-09T00:32:58.754Z,17.02
2018-05-09T00:34:02.866Z,17.09
2018-05-09T00:35:06.922Z,17.04
2018-05-09T00:36:11.322Z,17.02
2018-05-09T00:37:15.421Z,17.10
2018-05-09T00:38:19.550Z,17.24
2018-05-09T00:39:23.631Z,17.19
2018-05-09T00:40:27.780Z,17.16
2018-05-09T00:41:31.866Z,17.17
2018-05-09T00:42:36.293Z,17.08
2018-05-09T00:43:40.480Z,16.99
2018-05-09T00:44:44.593Z,17.06
2018-05-09T00:45:49.283Z,16.99
2018-05-09T00:46:53.435Z,16.93
2018-05-09T00:47:58.433Z,16.90
2018-05-09T00:49:02.600Z,16.90
2018-05-09T00:50:06.804Z,16.85
2018-05-09T00:51:10.834Z,16.76
2018-05-09T00:52:15.413Z,16.82
2018-05-09T00:53:19.472Z,16.72
2018-05-09T00:54:33.670Z,16.78
2018-05-09T00:55:37.726Z,16.84
2018-05-09T00:56:41.880Z,16.85
2018-05-09T00:57:45.980Z,16.84
2018-05-09T00:58:50.031Z,16.77
2018-05-09T00:59:54.173Z,16.86
2018-05-09T01:00:58.712Z,16.97
2018-05-09T01:02:03.110Z,16.95
2018-05-09T01:03:07.462Z,16.80
2018-05-09T01:04:11.549Z,16.72
2018-05-09T01:05:16.558Z,16.67
2018-05-09T01:06:20.734Z,16.67
2018-05-09T01:07:25.284Z,16.54
2018-05-09T01:08:29.439Z,16.45
2018-05-09T01:09:33.585Z,16.46
2018-05-09T01:10:37.680Z,16.40
2018-05-09T01:11:41.828Z,16.32
2018-05-09T01:12:45.915Z,16.29
2018-05-09T01:13:50.351Z,16.32
2018-05-09T01:14:55.249Z,16.47
2018-05-09T01:16:00.061Z,16.48
2018-05-09T01:17:04.201Z,16.38
2018-05-09T01:18:08.270Z,16.35
2018-05-09T01:19:12.346Z,16.45
2018-05-09T01:20:17.397Z,16.40
2018-05-09T01:21:21.517Z,16.44
2018-05-09T01:22:25.663Z,16.37
2018-05-09T01:23:30.419Z,16.41
2018-05-09T01:24:34.661Z,16.53
2018-05-09T01:25:38.824Z,16.54
2018-05-09T01:26:43.386Z,16.53
2018-05-09T01:27:47.619Z,16.49
2018-05-09T01:28:51.782Z,16.52
2018-05-09T01:29:56.495Z,16.48
2018-05-09T01:31:00.805Z,16.43
2018-05-09T01:32:04.921Z,16.30
2018-05-09T01:33:09.003Z,16.15
2018-05-09T01:34:13.056Z,16.23
2018-05-09T01:35:17.142Z,16.37
2018-05-09T01:36:21.287Z,16.34
2018-05-09T01:37:25.354Z,16.24
2018-05-09T01:38:29.426Z,16.29
2018-05-09T01:39:34.318Z,16.32
2018-05-09T01:40:38.417Z,16.30
2018-05-09T01:41:42.567Z,16.31
2018-05-09T01:42:46.712Z,16.26
2018-05-09T01:43:50.832Z,16.39
2018-05-09T01:44:56.867Z,16.40
2018-05-09T01:46:01.533Z,16.31
2018-05-09T01:47:05.604Z,16.44
2018-05-09T01:48:09.670Z,16.33
2018-05-09T01:49:15.096Z,16.44
2018-05-09T01:50:19.989Z,16.45
2018-05-09T01:51:24.379Z,16.39
2018-05-09T01:52:28.683Z,16.32
2018-05-09T01:53:33.201Z,16.20
2018-05-09T01:54:37.784Z,16.07
2018-05-09T01:55:42.236Z,15.97
2018-05-09T01:56:47.122Z,15.99
2018-05-09T01:57:51.671Z,16.05
2018-05-09T01:58:55.745Z,16.00
2018-05-09T01:59:59.881Z,16.13
2018-05-09T02:01:04.439Z,16.14
2018-05-09T02:02:09.836Z,16.11
2018-05-09T02:03:14.230Z,16.09
2018-05-09T02:04:18.306Z,16.02
2018-05-09T02:05:22.457Z,15.99
2018-05-09T02:06:26.548Z,15.93
2018-05-09T02:07:30.662Z,15.82
2018-05-09T02:08:34.747Z,15.70
2018-05-09T02:09:38.886Z,15.74
2018-05-09T02:10:43.026Z,15.89
2018-05-09T02:11:47.106Z,15.91
2018-05-09T02:12:51.177Z,16.09
2018-05-09T02:13:55.266Z,16.06
2018-05-09T02:14:59.694Z,16.02
2018-05-09T02:16:04.456Z,16.05
2018-05-09T02:17:08.539Z,15.94
2018-05-09T02:18:12.634Z,15.83
2018-05-09T02:19:16.757Z,15.84
2018-05-09T02:20:20.928Z,15.84
2018-05-09T02:21:25.916Z,15.92
2018-05-09T02:22:30.268Z,15.77
2018-05-09T02:23:34.350Z,15.72
2018-05-09T02:24:38.456Z,15.77
2018-05-09T02:25:42.587Z,15.83
2018-05-09T02:26:46.663Z,15.80
2018-05-09T02:27:50.734Z,15.69
2018-05-09T02:28:55.181Z,15.66
2018-05-09T02:29:59.468Z,15.77
2018-05-09T02:31:04.945Z,15.87
2018-05-09T02:32:09.039Z,16.00
2018-05-09T02:33:13.120Z,16.02
2018-05-09T02:34:17.203Z,15.89
2018-05-09T02:35:22.779Z,15.95
2018-05-09T02:36:26.863Z,16.02
2018-05-09T02:37:30.939Z,15.94
2018-05-09T02:38:35.011Z,15.82
2018-05-09T02:39:39.175Z,15.86
2018-05-09T02:40:43.372Z,15.78
2018-05-09T02:41:47.422Z,15.73
2018-05-09T02:42:51.501Z,15.64
2018-05-09T02:43:55.586Z,15.68
2018-05-09T02:44:59.697Z,15.61
2018-05-09T02:46:04.284Z,15.56
2018-05-09T02:47:08.980Z,15.69
2018-05-09T02:48:13.033Z,15.80
2018-05-09T02:49:17.174Z,15.78
2018-05-09T02:50:21.919Z,15.73
2018-05-09T02:51:26.062Z,15.76
2018-05-09T02:52:30.143Z,15.81
2018-05-09T02:53:34.542Z,15.74
2018-05-09T02:54:39.305Z,15.55
2018-05-09T02:55:44.016Z,15.46
2018-05-09T02:56:48.118Z,15.47
2018-05-09T02:57:52.224Z,15.36
2018-05-09T02:58:56.286Z,15.22
2018-05-09T03:00:00.689Z,15.12
2018-05-09T03:01:05.174Z,15.10
2018-05-09T03:02:09.322Z,15.08
2018-05-09T03:03:13.425Z,15.16
2018-05-09T03:04:17.503Z,15.18
2018-05-09T03:05:21.613Z,15.25
2018-05-09T03:06:25.772Z,15.27
2018-05-09T03:07:30.475Z,15.28
2018-05-09T03:08:34.559Z,15.23
2018-05-09T03:09:38.707Z,15.32
2018-05-09T03:10:42.751Z,15.24
2018-05-09T03:11:47.225Z,15.29
2018-05-09T03:12:51.851Z,15.28
2018-05-09T03:13:55.933Z,15.31
2018-05-09T03:15:00.526Z,15.31
2018-05-09T03:16:04.972Z,15.41
2018-05-09T03:17:09.080Z,15.34
2018-05-09T03:18:13.502Z,15.28
2018-05-09T03:19:17.612Z,15.37
2018-05-09T03:20:21.743Z,15.42
2018-05-09T03:21:25.803Z,15.30
2018-05-09T03:22:30.562Z,15.37
2018-05-09T03:23:35.800Z,15.44
2018-05-09T03:24:39.885Z,15.52
2018-05-09T03:25:43.939Z,15.39
2018-05-09T03:26:48.126Z,15.30
2018-05-09T03:27:52.310Z,15.28
2018-05-09T03:28:56.452Z,15.31
2018-05-09T03:30:02.640Z,15.24
2018-05-09T03:31:07.156Z,15.21
2018-05-09T03:32:11.430Z,15.19
2018-05-09T03:33:15.573Z,15.23
2018-05-09T03:34:20.067Z,15.25
2018-05-09T03:35:24.142Z,15.25
2018-05-09T03:36:28.868Z,15.32
2018-05-09T03:37:34.060Z,15.26
2018-05-09T03:38:38.250Z,15.16
2018-05-09T03:39:42.328Z,15.07
2018-05-09T03:40:46.438Z,15.09
2018-05-09T03:41:50.519Z,15.13
2018-05-09T03:42:54.636Z,15.15
2018-05-09T03:43:58.772Z,15.18
2018-05-09T03:45:04.349Z,15.14
2018-05-09T03:46:08.847Z,15.00
2018-05-09T03:47:12.918Z,15.06
2018-05-09T03:48:16.980Z,15.13
2018-05-09T03:49:21.555Z,15.02
2018-05-09T03:50:25.647Z,15.10
2018-05-09T03:51:30.705Z,15.15
2018-05-09T03:52:34.820Z,15.28
2018-05-09T03:53:38.959Z,15.28
2018-05-09T03:54:43.099Z,15.14
2018-05-09T03:55:47.481Z,15.11
2018-05-09T03:56:51.953Z,15.02
2018-05-09T03:57:56.018Z,15.07
2018-05-09T03:59:00.109Z,15.15
2018-05-09T04:00:06.484Z,15.20
2018-05-09T04:01:11.539Z,15.23
2018-05-09T04:02:26.611Z,15.33
2018-05-09T04:07:49.639Z,15.32
2018-05-09T04:09:56.185Z,15.38
2018-05-09T04:11:00.259Z,15.50
2018-05-09T04:12:04.415Z,15.43
2018-05-09T04:13:08.492Z,15.42
2018-05-09T04:14:12.915Z,15.51
2018-05-09T04:15:17.333Z,15.63
2018-05-09T04:16:21.466Z,15.81
2018-05-09T04:17:25.527Z,15.97
2018-05-09T04:18:29.666Z,16.06
2018-05-09T04:19:34.171Z,16.03
2018-05-09T04:20:38.914Z,16.20
2018-05-09T04:21:43.073Z,16.26
2018-05-09T04:22:47.240Z,16.28
2018-05-09T04:23:51.790Z,16.24
2018-05-09T04:24:56.123Z,16.18
2018-05-09T04:26:00.331Z,16.25
2018-05-09T04:27:04.993Z,16.33
2018-05-09T04:28:09.942Z,16.49
2018-05-09T04:29:14.027Z,16.52
2018-05-09T04:30:18.282Z,16.66
2018-05-09T04:31:22.377Z,16.79
2018-05-09T04:32:26.629Z,16.92
2018-05-09T04:33:31.793Z,17.08
2018-05-09T04:34:35.921Z,17.05
2018-05-09T04:35:40.105Z,17.09
2018-05-09T04:36:44.179Z,17.26
2018-05-09T04:37:48.231Z,17.45
2018-05-09T04:38:52.369Z,17.61
2018-05-09T04:39:56.527Z,17.87
2018-05-09T04:41:00.616Z,17.82
2018-05-09T04:42:04.778Z,17.85
2018-05-09T04:43:09.349Z,17.92
2018-05-09T04:44:13.521Z,17.93
2018-05-09T04:45:18.427Z,17.94
2018-05-09T04:46:22.775Z,18.15
2018-05-09T04:47:26.852Z,18.21
2018-05-09T04:48:31.708Z,18.26
2018-05-09T04:49:35.844Z,18.27
2018-05-09T04:50:39.908Z,18.44
2018-05-09T04:51:44.060Z,18.53
2018-05-09T04:52:48.134Z,18.61
2018-05-09T04:53:52.212Z,18.68
2018-05-09T04:54:56.410Z,18.81
2018-05-09T04:56:00.542Z,18.94
2018-05-09T04:57:05.024Z,18.91
2018-05-09T04:58:09.130Z,18.97
2018-05-09T04:59:13.191Z,19.00
2018-05-09T05:00:17.578Z,19.21
2018-05-09T05:01:21.644Z,19.36
2018-05-09T05:02:25.715Z,19.39
2018-05-09T05:03:29.822Z,19.49
2018-05-09T05:04:34.415Z,19.57
2018-05-09T05:05:38.567Z,19.73
2018-05-09T05:06:42.667Z,19.83
2018-05-09T05:07:46.732Z,19.84
2018-05-09T05:08:50.802Z,19.93
2018-05-09T05:09:55.180Z,19.96
2018-05-09T05:10:59.350Z,20.01
2018-05-09T05:12:03.506Z,20.06
2018-05-09T05:13:07.583Z,20.09
2018-05-09T05:14:11.663Z,20.20
2018-05-09T05:15:16.512Z,20.19
2018-05-09T05:16:20.571Z,20.25
2018-05-09T05:17:24.638Z,20.27
2018-05-09T05:18:28.799Z,20.57
2018-05-09T05:19:32.871Z,20.66
2018-05-09T05:20:37.257Z,20.67
2018-05-09T05:21:42.096Z,20.63
2018-05-09T05:22:46.193Z,20.79
2018-05-09T05:23:50.272Z,20.79
2018-05-09T05:24:54.422Z,20.91
2018-05-09T05:25:58.663Z,20.96
2018-05-09T05:27:03.140Z,21.04
2018-05-09T05:28:07.466Z,21.09
2018-05-09T05:29:11.622Z,21.20
2018-05-09T05:30:16.847Z,21.14
2018-05-09T05:31:21.426Z,20.94
2018-05-09T05:32:25.493Z,21.03
2018-05-09T05:33:29.982Z,21.01
2018-05-09T05:34:34.070Z,20.96
2018-05-09T05:35:38.179Z,20.97
2018-05-09T05:36:42.232Z,21.01
2018-05-09T05:37:46.362Z,21.08
2018-05-09T05:38:50.477Z,21.26
2018-05-09T05:39:54.567Z,21.27
2018-05-09T05:40:58.638Z,21.34
2018-05-09T05:42:03.296Z,21.31
2018-05-09T05:43:07.709Z,21.49
2018-05-09T05:44:11.774Z,21.63
2018-05-09T05:45:17.023Z,21.85
2018-05-09T05:46:21.412Z,21.91
2018-05-09T05:47:25.488Z,21.94
2018-05-09T05:48:29.614Z,21.86
2018-05-09T05:49:33.810Z,21.79
2018-05-09T05:50:37.972Z,21.81
2018-05-09T05:51:42.402Z,21.82
2018-05-09T05:52:46.480Z,21.81
2018-05-09T05:53:50.686Z,21.69
2018-05-09T05:54:54.767Z,21.76
2018-05-09T05:55:58.920Z,21.83
2018-05-09T05:57:03.032Z,21.84
2018-05-09T05:58:07.486Z,21.95
2018-05-09T05:59:11.561Z,21.90
2018-05-09T06:00:18.141Z,21.89
2018-05-09T06:01:22.240Z,21.93
2018-05-09T06:02:26.383Z,21.89
2018-05-09T06:03:30.523Z,22.05
2018-05-09T06:04:34.909Z,22.00
2018-05-09T06:05:39.030Z,22.15
2018-05-09T06:06:43.178Z,22.30
2018-05-09T06:07:47.266Z,22.42
2018-05-09T06:08:51.387Z,22.41
2018-05-09T06:09:56.131Z,22.33
2018-05-09T06:11:00.587Z,22.37
2018-05-09T06:12:04.647Z,22.50
2018-05-09T06:13:08.809Z,22.54
2018-05-09T06:14:12.887Z,22.55
2018-05-09T06:15:17.931Z,22.62
2018-05-09T06:16:22.027Z,22.58
2018-05-09T06:17:27.507Z,22.75
2018-05-09T06:18:31.632Z,22.84
2018-05-09T06:19:35.767Z,22.87
2018-05-09T06:20:40.499Z,22.88
2018-05-09T06:21:44.577Z,22.97
2018-05-09T06:22:48.683Z,22.97
2018-05-09T06:23:52.864Z,23.07
2018-05-09T06:24:56.935Z,23.16
2018-05-09T06:26:01.035Z,23.25
2018-05-09T06:27:05.191Z,23.37
2018-05-09T06:28:09.355Z,23.47
2018-05-09T06:29:13.839Z,23.48
2018-05-09T06:30:17.961Z,23.52
2018-05-09T06:31:22.029Z,23.59
2018-05-09T06:32:26.117Z,23.60
2018-05-09T06:33:30.278Z,23.49
2018-05-09T06:34:34.376Z,23.42
2018-05-09T06:35:38.746Z,23.59
2018-05-09T06:36:43.357Z,23.73
2018-05-09T06:37:47.522Z,23.76
2018-05-09T06:38:51.621Z,23.95
2018-05-09T06:39:55.658Z,24.04
2018-05-09T06:40:59.779Z,24.24
2018-05-09T06:42:03.883Z,24.52
2018-05-09T06:43:07.956Z,24.74
2018-05-09T06:44:12.133Z,24.81
2018-05-09T06:45:21.130Z,24.98
2018-05-09T06:46:25.500Z,25.08
2018-05-09T06:47:29.570Z,25.05
2018-05-09T06:48:33.743Z,25.09
2018-05-09T06:49:37.904Z,25.08
2018-05-09T06:50:43.714Z,25.20
2018-05-09T06:51:47.775Z,25.27
2018-05-09T06:52:51.843Z,25.22
2018-05-09T06:53:55.894Z,25.09
2018-05-09T06:55:00.120Z,25.12
2018-05-09T06:56:04.352Z,25.20
2018-05-09T06:57:08.684Z,25.35
2018-05-09T06:58:12.832Z,25.47
2018-05-09T06:59:17.318Z,25.57
2018-05-09T07:00:21.730Z,25.62
2018-05-09T07:01:25.885Z,25.60
2018-05-09T07:02:29.952Z,25.61
2018-05-09T07:03:34.033Z,25.69
2018-05-09T07:04:38.114Z,25.65
2018-05-09T07:05:43.182Z,25.75
2018-05-09T07:06:47.521Z,25.93
2018-05-09T07:07:51.384Z,26.04
2018-05-09T07:08:55.491Z,26.40
2018-05-09T07:09:59.656Z,26.59
2018-05-09T07:11:03.834Z,26.59
2018-05-09T07:12:08.245Z,26.32
2018-05-09T07:13:13.561Z,26.30
2018-05-09T07:14:18.404Z,26.14
2018-05-09T07:15:22.502Z,25.92
2018-05-09T07:16:26.563Z,25.87
2018-05-09T07:17:30.628Z,25.82
2018-05-09T07:18:35.061Z,26.04
2018-05-09T07:19:39.124Z,26.33
2018-05-09T07:20:43.302Z,26.47
2018-05-09T07:21:47.486Z,26.35
2018-05-09T07:22:51.644Z,26.73
2018-05-09T07:23:55.748Z,26.76
2018-05-09T07:24:59.846Z,26.83
2018-05-09T07:26:04.018Z,26.81
2018-05-09T07:27:08.747Z,27.21
2018-05-09T07:28:12.902Z,27.44
2018-05-09T07:29:17.668Z,27.85
2018-05-09T07:30:21.723Z,28.20
2018-05-09T07:31:26.098Z,28.40
2018-05-09T07:32:30.194Z,28.29
2018-05-09T07:33:34.242Z,28.08
2018-05-09T07:34:38.324Z,28.04
2018-05-09T07:35:42.486Z,27.91
2018-05-09T07:36:46.578Z,27.70
2018-05-09T07:37:50.966Z,27.65
2018-05-09T07:38:55.022Z,27.72
2018-05-09T07:39:59.212Z,27.86
2018-05-09T07:41:03.389Z,27.91
2018-05-09T07:42:07.480Z,27.79
2018-05-09T07:43:11.631Z,27.71
2018-05-09T07:44:15.762Z,27.76
2018-05-09T07:45:20.116Z,27.97
2018-05-09T07:46:24.200Z,28.13
2018-05-09T07:47:28.278Z,28.19
2018-05-09T07:48:32.407Z,28.33
2018-05-09T07:49:36.796Z,28.31
2018-05-09T07:50:40.868Z,28.31
2018-05-09T07:51:45.925Z,28.47
2018-05-09T07:52:49.992Z,28.55
2018-05-09T07:53:54.156Z,28.75
2018-05-09T07:54:58.330Z,28.84
2018-05-09T07:56:02.806Z,28.81
2018-05-09T07:57:06.915Z,28.78
2018-05-09T07:58:11.006Z,28.67
2018-05-09T07:59:16.037Z,28.56
2018-05-09T08:00:20.379Z,28.38
2018-05-09T08:01:24.544Z,28.29
2018-05-09T08:02:29.027Z,28.29
2018-05-09T08:03:33.114Z,28.41
2018-05-09T08:04:37.282Z,28.38
2018-05-09T08:05:41.914Z,28.36
2018-05-09T08:06:46.600Z,28.34
2018-05-09T08:07:50.682Z,28.36
2018-05-09T08:08:54.746Z,28.60
2018-05-09T08:09:58.962Z,28.69
2018-05-09T08:11:03.166Z,28.70
2018-05-09T08:12:07.235Z,28.53
2018-05-09T08:13:11.345Z,28.83
2018-05-09T08:14:16.409Z,29.00
2018-05-09T08:15:20.802Z,29.04
2018-05-09T08:16:25.127Z,28.98
2018-05-09T08:17:29.244Z,28.98
2018-05-09T08:18:33.334Z,28.95
2018-05-09T08:19:37.499Z,29.11
2018-05-09T08:20:41.917Z,29.14
2018-05-09T08:21:47.032Z,29.24
2018-05-09T08:22:51.089Z,29.33
2018-05-09T08:23:55.463Z,29.04
2018-05-09T08:24:59.606Z,28.97
2018-05-09T08:26:03.755Z,29.28
2018-05-09T08:27:08.163Z,29.58
2018-05-09T08:28:12.267Z,29.73
2018-05-09T08:29:17.041Z,29.71
2018-05-09T08:30:21.529Z,29.65
2018-05-09T08:31:25.572Z,29.31
2018-05-09T08:32:30.033Z,29.66
2018-05-09T08:33:34.131Z,29.94
2018-05-09T08:34:38.217Z,30.07
2018-05-09T08:35:42.307Z,30.09
2018-05-09T08:36:46.463Z,30.19
2018-05-09T08:37:50.582Z,30.37
2018-05-09T08:38:55.069Z,30.26
2018-05-09T08:39:59.205Z,29.96
2018-05-09T08:41:03.369Z,29.79
2018-05-09T08:42:07.760Z,29.85
2018-05-09T08:43:12.001Z,30.14
2018-05-09T08:44:16.013Z,30.38
2018-05-09T08:45:20.235Z,30.53
2018-05-09T08:46:24.567Z,30.57
2018-05-09T08:47:28.669Z,30.77
2018-05-09T08:48:32.739Z,30.80
2018-05-09T08:49:36.854Z,30.74
2018-05-09T08:50:41.253Z,30.46
2018-05-09T08:51:45.419Z,30.37
2018-05-09T08:52:50.121Z,30.59
2018-05-09T08:53:54.289Z,30.49
2018-05-09T08:54:58.423Z,30.32
2018-05-09T08:56:02.699Z,30.66
2018-05-09T08:57:08.111Z,30.96
2018-05-09T08:58:12.195Z,30.96
2018-05-09T08:59:16.279Z,30.84
2018-05-09T09:00:20.719Z,30.70
2018-05-09T09:01:25.105Z,30.69
2018-05-09T09:02:29.222Z,30.83
2018-05-09T09:03:33.603Z,30.83
2018-05-09T09:04:37.717Z,30.81
2018-05-09T09:05:41.913Z,30.93
2018-05-09T09:06:45.983Z,31.11
2018-05-09T09:07:50.089Z,31.28
2018-05-09T09:08:54.187Z,31.32
2018-05-09T09:09:58.301Z,31.42
2018-05-09T09:11:02.543Z,31.29
2018-05-09T09:12:07.017Z,31.29
2018-05-09T09:13:11.107Z,31.29
2018-05-09T09:14:15.747Z,31.06
2018-05-09T09:15:20.025Z,31.11
2018-05-09T09:16:24.375Z,31.46
2018-05-09T09:17:28.539Z,31.55
2018-05-09T09:18:32.659Z,31.66
2018-05-09T09:19:36.837Z,31.76
2018-05-09T09:20:40.901Z,31.88
2018-05-09T09:21:45.367Z,31.88
2018-05-09T09:22:49.483Z,31.95
2018-05-09T09:23:54.007Z,32.02
2018-05-09T09:24:58.137Z,32.02
2018-05-09T09:26:02.283Z,32.03
2018-05-09T09:27:06.377Z,32.07
2018-05-09T09:28:10.829Z,32.08
2018-05-09T09:29:16.116Z,31.87
2018-05-09T09:30:20.209Z,31.86
2018-05-09T09:31:24.263Z,32.03
2018-05-09T09:32:28.337Z,31.99
2018-05-09T09:33:32.496Z,32.14
2018-05-09T09:34:36.565Z,32.18
2018-05-09T09:35:40.725Z,32.10
2018-05-09T09:36:44.850Z,32.05
2018-05-09T09:37:49.328Z,32.10
2018-05-09T09:38:53.405Z,32.20
2018-05-09T09:39:57.759Z,32.03
2018-05-09T09:41:01.831Z,32.23
2018-05-09T09:42:06.117Z,32.42
2018-05-09T09:43:10.179Z,32.57
2018-05-09T09:44:14.257Z,32.64
2018-05-09T09:45:18.580Z,32.71
2018-05-09T09:46:23.047Z,32.74
2018-05-09T09:47:27.431Z,32.63
2018-05-09T09:48:31.613Z,32.78
2018-05-09T09:49:35.722Z,32.72
2018-05-09T09:50:39.866Z,32.76
2018-05-09T09:51:43.879Z,32.93
2018-05-09T09:52:48.367Z,32.94
2018-05-09T09:53:52.467Z,32.67
2018-05-09T09:54:56.554Z,32.62
2018-05-09T09:56:00.631Z,32.77
2018-05-09T09:57:04.810Z,32.90
2018-05-09T09:58:09.299Z,32.81
2018-05-09T09:59:13.477Z,32.75
2018-05-09T10:00:21.915Z,32.61
2018-05-09T10:01:26.026Z,32.76
2018-05-09T10:02:30.083Z,32.88
2018-05-09T10:03:34.986Z,32.72
2018-05-09T10:04:39.361Z,32.91
2018-05-09T10:05:43.501Z,33.10
2018-05-09T10:06:47.687Z,33.34
2018-05-09T10:07:52.369Z,33.46
2018-05-09T10:08:56.503Z,33.16
2018-05-09T10:10:00.567Z,33.32
2018-05-09T10:11:05.837Z,33.52
2018-05-09T10:12:09.928Z,33.43
2018-05-09T10:13:14.193Z,33.41
2018-05-09T10:14:18.471Z,33.03
2018-05-09T10:15:22.607Z,32.92
2018-05-09T10:16:27.301Z,32.83
2018-05-09T10:17:32.259Z,32.51
2018-05-09T10:18:37.251Z,32.53
2018-05-09T10:19:41.421Z,32.75
2018-05-09T10:20:45.531Z,32.85
2018-05-09T10:21:49.687Z,32.58
2018-05-09T10:22:53.821Z,32.70
2018-05-09T10:23:58.293Z,32.83
2018-05-09T10:25:02.976Z,32.36
2018-05-09T10:26:07.605Z,32.17
2018-05-09T10:27:11.745Z,32.31
2018-05-09T10:28:15.902Z,32.39
2018-05-09T10:29:20.079Z,32.27
2018-05-09T10:30:24.257Z,32.33
2018-05-09T10:31:28.436Z,32.67
2018-05-09T10:32:32.531Z,33.18
2018-05-09T10:33:37.142Z,33.55
2018-05-09T10:34:41.298Z,33.39
2018-05-09T10:35:45.833Z,33.42
2018-05-09T10:36:49.937Z,33.49
2018-05-09T10:37:54.093Z,34.05
2018-05-09T10:38:58.205Z,34.17
2018-05-09T10:40:02.318Z,34.49
2018-05-09T10:41:06.431Z,34.34
2018-05-09T10:42:11.005Z,34.43
2018-05-09T10:43:16.108Z,34.90
2018-05-09T10:44:20.315Z,35.02
2018-05-09T10:45:24.675Z,35.15
2018-05-09T10:46:29.056Z,35.39
2018-05-09T10:47:33.593Z,35.23
2018-05-09T10:48:38.283Z,35.06
2018-05-09T10:49:42.352Z,34.92
2018-05-09T10:50:46.744Z,35.28
2018-05-09T10:51:50.771Z,35.75
2018-05-09T10:52:54.949Z,35.86
2018-05-09T10:53:59.427Z,35.94
2018-05-09T10:55:03.607Z,35.58
2018-05-09T10:56:07.709Z,34.95
2018-05-09T10:57:11.967Z,34.37
2018-05-09T10:58:16.160Z,34.39
2018-05-09T10:59:20.357Z,34.74
2018-05-09T11:00:24.963Z,34.96
2018-05-09T11:01:29.043Z,34.43
2018-05-09T11:02:33.259Z,34.08
2018-05-09T11:03:37.363Z,34.43
2018-05-09T11:04:41.445Z,34.66
2018-05-09T11:05:45.564Z,34.73
2018-05-09T11:06:49.646Z,34.62
2018-05-09T11:07:53.856Z,34.45
2018-05-09T11:08:57.960Z,34.04
2018-05-09T11:10:02.103Z,33.45
2018-05-09T11:11:06.242Z,33.29
2018-05-09T11:12:10.630Z,33.77
2018-05-09T11:13:14.819Z,33.99
2018-05-09T11:14:18.991Z,34.01
2018-05-09T11:15:23.454Z,34.54
2018-05-09T11:16:27.556Z,34.77
2018-05-09T11:17:31.662Z,34.42
2018-05-09T11:18:36.142Z,33.66
2018-05-09T11:19:40.226Z,33.88
2018-05-09T11:20:44.304Z,34.26
2018-05-09T11:21:48.382Z,34.09
2018-05-09T11:22:52.554Z,34.51
2018-05-09T11:23:56.630Z,34.93
2018-05-09T11:25:01.139Z,34.76
2018-05-09T11:26:06.498Z,35.27
2018-05-09T11:27:10.564Z,35.04
2018-05-09T11:28:14.745Z,35.05
2018-05-09T11:29:18.886Z,35.46
2018-05-09T11:30:23.499Z,35.48
2018-05-09T11:31:28.016Z,34.94
2018-05-09T11:32:32.444Z,34.31
2018-05-09T11:33:37.526Z,35.02
2018-05-09T11:34:41.677Z,35.46
2018-05-09T11:35:45.843Z,35.45
2018-05-09T11:36:50.232Z,34.93
2018-05-09T11:37:54.349Z,34.56
2018-05-09T11:38:58.433Z,34.43
2018-05-09T11:40:03.800Z,33.61
2018-05-09T11:41:08.779Z,32.93
2018-05-09T11:42:12.885Z,32.38
2018-05-09T11:43:17.103Z,31.91
2018-05-09T11:44:21.235Z,32.27
2018-05-09T11:45:25.339Z,32.87
2018-05-09T11:46:29.561Z,33.22
2018-05-09T11:47:33.646Z,32.80
2018-05-09T11:48:38.344Z,32.71
2018-05-09T11:49:42.711Z,33.05
2018-05-09T11:50:46.896Z,33.29
2018-05-09T11:51:51.043Z,32.71
2018-05-09T11:52:55.123Z,32.57
2018-05-09T11:53:59.195Z,33.00
2018-05-09T11:55:03.388Z,33.94
2018-05-09T11:56:07.760Z,34.23
2018-05-09T11:57:11.879Z,35.10
2018-05-09T11:58:15.993Z,34.83
2018-05-09T11:59:20.360Z,35.25
2018-05-09T12:00:24.423Z,35.74
2018-05-09T12:01:28.597Z,35.67
2018-05-09T12:02:33.043Z,35.05
2018-05-09T12:03:37.747Z,35.08
2018-05-09T12:04:41.902Z,36.14
2018-05-09T12:05:46.027Z,36.76
2018-05-09T12:06:50.152Z,36.31
2018-05-09T12:07:54.357Z,35.45
2018-05-09T12:08:58.751Z,36.08
2018-05-09T12:10:03.721Z,36.85
2018-05-09T12:11:07.895Z,37.27
2018-05-09T12:12:12.098Z,36.76
2018-05-09T12:13:16.269Z,36.24
2018-05-09T12:14:20.653Z,34.71
2018-05-09T12:15:24.809Z,33.84
2018-05-09T12:16:29.072Z,34.00
2018-05-09T12:17:33.585Z,33.25
2018-05-09T12:18:38.127Z,34.53
2018-05-09T12:19:42.326Z,36.01
2018-05-09T12:20:46.395Z,35.20
2018-05-09T12:21:50.814Z,34.73
2018-05-09T12:22:54.927Z,33.85
2018-05-09T12:23:59.119Z,33.52
2018-05-09T12:25:04.291Z,34.17
2018-05-09T12:26:08.362Z,34.28
2018-05-09T12:27:12.545Z,34.22
2018-05-09T12:28:16.663Z,34.39
2018-05-09T12:29:20.829Z,35.79
2018-05-09T12:30:25.571Z,35.95
2018-05-09T12:31:29.662Z,36.27
2018-05-09T12:32:33.791Z,36.71
2018-05-09T12:33:38.280Z,37.67
2018-05-09T12:34:42.405Z,37.81
2018-05-09T12:35:46.574Z,36.66
2018-05-09T12:36:50.737Z,34.78
2018-05-09T12:37:54.838Z,33.68
2018-05-09T12:38:58.922Z,34.00
2018-05-09T12:40:04.057Z,34.57
2018-05-09T12:41:08.351Z,34.57
2018-05-09T12:42:12.459Z,34.90
2018-05-09T12:43:16.643Z,35.20
2018-05-09T12:44:20.763Z,35.04
2018-05-09T12:45:25.303Z,35.03
2018-05-09T12:46:29.945Z,34.97
2018-05-09T12:47:34.322Z,34.91
2018-05-09T12:48:38.652Z,35.69
2018-05-09T12:49:43.750Z,36.35
2018-05-09T12:50:48.108Z,36.97
2018-05-09T12:51:52.987Z,36.92
2018-05-09T12:52:57.098Z,36.22
2018-05-09T12:54:01.332Z,35.85
2018-05-09T12:55:05.966Z,36.73
2018-05-09T12:56:10.158Z,37.48
2018-05-09T12:57:14.336Z,37.35
2018-05-09T12:58:18.404Z,36.18
2018-05-09T12:59:22.619Z,35.11
2018-05-09T13:00:27.136Z,35.49
2018-05-09T13:01:31.233Z,36.32
2018-05-09T13:02:35.432Z,35.98
2018-05-09T13:03:40.042Z,35.27
2018-05-09T13:04:44.748Z,34.32
2018-05-09T13:05:48.826Z,34.38
2018-05-09T13:06:52.902Z,33.95
2018-05-09T13:07:57.098Z,33.14
2018-05-09T13:09:01.580Z,34.09
2018-05-09T13:10:05.689Z,34.30
2018-05-09T13:11:09.871Z,34.30
2018-05-09T13:12:13.910Z,35.13
2018-05-09T13:13:18.108Z,36.30
2018-05-09T13:14:22.258Z,36.35
2018-05-09T13:15:27.366Z,36.33
2018-05-09T13:16:31.440Z,36.31
2018-05-09T13:17:35.607Z,37.07
2018-05-09T13:18:39.691Z,36.56
2018-05-09T13:19:43.866Z,34.86
2018-05-09T13:20:47.978Z,33.37
2018-05-09T13:21:52.160Z,33.20
2018-05-09T13:24:03.885Z,33.35
2018-05-09T13:25:07.986Z,34.48
2018-05-09T13:26:12.060Z,34.58
2018-05-09T13:27:17.394Z,33.94
2018-05-09T13:28:21.593Z,33.55
2018-05-09T13:29:25.832Z,33.23
2018-05-09T13:30:30.178Z,34.56
2018-05-09T13:31:34.437Z,35.19
2018-05-09T13:32:38.553Z,34.54
2018-05-09T13:33:42.771Z,33.14
2018-05-09T13:34:46.918Z,32.79
2018-05-09T13:35:51.000Z,33.00
2018-05-09T13:36:55.072Z,33.50
2018-05-09T13:37:59.156Z,33.86
2018-05-09T13:39:03.356Z,33.30
2018-05-09T13:40:07.761Z,33.56
2018-05-09T13:41:11.900Z,33.97
2018-05-09T13:42:16.066Z,34.49
2018-05-09T13:43:20.256Z,35.89
2018-05-09T13:44:24.379Z,36.80
2018-05-09T13:45:28.887Z,36.06
2018-05-09T13:46:33.460Z,35.07
2018-05-09T13:47:37.574Z,34.81
2018-05-09T13:48:41.650Z,35.04
2018-05-09T13:49:46.374Z,35.59
2018-05-09T13:50:51.394Z,35.47
2018-05-09T13:51:55.574Z,34.49
2018-05-09T13:53:00.015Z,34.17
2018-05-09T13:54:04.176Z,33.56
2018-05-09T13:55:08.274Z,33.60